Павлодар

Карта отелей и гостиниц, располагающихся рядом с аэропортом Павлодар :

Павлодар Павлодарская область 52° 11' 43.26" N, 77° 4' 23.8188" E
Код аэродрома ИКАО
UASP
Код аэродрома RU
УАСП
Координаты
N52.19535° E077.07328°
Превышение над уровнем моря
125
Основная полоса
03L/21R
Курс магнитный
034/214
Длина основной ВПП
2500
Ширина основной ВПП
45
Покрытие основной ВПП
Твёрдое (асфальтобетон)
Освещение ВПП
Постоянное
Тип: 
Аэродром
Принадлежность: 
ГА
Статус: 
Действующий
Сайт: 
http://www.airport.pvl.kz/
Страна: 
Казахстан
Регион: 
Павлодарская область
Дополнительная информация: 
Эксплуатант: АО «Аэропорт Павлодар». 2 класса, способен принимать воздушные суда Ил-76, Ту-134, Ту-154, Як-42, Ан-12, Ил-18 и более лёгкие, а также вертолёты всех типов.
Погода: 

Авиационная погода в Павлодаре

Регион: 
Погода METAR: 
UASP 241800Z 22005MPS CAVOK 09/03 Q1022 NOSIG RMK QFE755/1007
Время наблюдения
2021-10-24T18:00:00Z
Температура C
9.0
Точка росы
3.0
Направление ветра
220
Скорость ветра (узлы)
10
Метео видимость
6.21
Явления погоды
Условия полета
VFR
Аэропорт подробнее: 

Найти трансфер

С помощью этой формы Вы можете найти трансфер из аэропорта Павлодар в город, аэропорт или вокзал:

Карта места

Javascript is required to view this map.

Погода в аэропортах:

Авиационная погода в Москве - Остафьево

Погода METAR: 
UUMO 241700Z 32006MPS 9000 -SHSN BKN058CB 01/M01 Q1021 RESHSN R25/290050 NOSIG RMK QFE750/1001
Время наблюдения
2021-10-24T17:00:00Z
Температура C
1.0
Точка росы
-1.0
Направление ветра
320
Скорость ветра (узлы)
12
Метео видимость
5.59
Явления погоды
-SHSN
Условия полета
VFR
Аэропорт подробнее: 

Авиационная погода в Самсуне

Регион: 
Погода METAR: 
LTFH 241650Z 35016G26KT 8000 -SHRA SCT010 BKN028 BKN080 14/11 Q1024 NOSIG
Время наблюдения
2021-10-24T16:50:00Z
Температура C
14.0
Точка росы
11.0
Направление ветра
350
Скорость ветра (узлы)
16
Метео видимость
4.97
Явления погоды
-SHRA
Условия полета
MVFR

Авиационная погода в Воронеже

Регион: 
Погода METAR: 
UUOO 241700Z 33008MPS 9000 -SHRA BKN010 OVC///CB 03/01 Q1020 R30/290155 NOSIG RMK QFE752
Время наблюдения
2021-10-24T17:00:00Z
Температура C
3.0
Точка росы
1.0
Направление ветра
330
Скорость ветра (узлы)
16
Метео видимость
5.59
Явления погоды
-SHRA
Условия полета
MVFR
Аэропорт подробнее: 

Авиационная погода в аэропорту Алыкель

Регион: 
Погода METAR: 
UOOO 241700Z 06003MPS 3100 -SN SCT012 M03/M03 Q0987 R01/491048 NOSIG RMK QFE726/0968
Время наблюдения
2021-10-24T17:00:00Z
Температура C
-3.0
Точка росы
-3.0
Направление ветра
60
Скорость ветра (узлы)
6
Метео видимость
1.93
Явления погоды
-SN
Условия полета
IFR
Аэропорт подробнее: